Time;durP1;ratioP1;P1;durP2;ratioP2;P2;SDS_P1;SDS_P2;PMS_P1;PMS_P2;Temp;Humidity;BMP_temperature;BMP_pressure;BME280_temperature;BME280_humidity;BME280_pressure;Samples;Min_cycle;Max_cycle;Signal;HPM_P1;HPM_P2
2023/06/07 00:01:08;;;;;;;2.58;2.10;;;16.00;56.20;;;;;;4990989;28;20030;-90
2023/06/07 00:03:36;;;;;;;2.13;1.70;;;16.00;57.00;;;;;;4996902;28;20030;-89
2023/06/07 00:06:02;;;;;;;3.35;2.08;;;16.00;56.60;;;;;;5006599;28;20060;-89
2023/06/07 00:08:29;;;;;;;3.05;2.25;;;15.90;56.60;;;;;;4993201;28;20029;-89
2023/06/07 00:10:55;;;;;;;1.85;1.75;;;15.90;56.80;;;;;;4999460;28;20034;-90
2023/06/07 00:13:21;;;;;;;3.03;2.10;;;15.90;56.80;;;;;;4996621;28;20031;-90
2023/06/07 00:15:47;;;;;;;2.63;2.13;;;15.90;56.90;;;;;;4988668;28;20049;-90
2023/06/07 00:18:12;;;;;;;2.65;1.98;;;15.90;57.00;;;;;;4994746;28;20077;-89
2023/06/07 00:20:38;;;;;;;2.78;2.00;;;15.90;57.00;;;;;;4993099;28;20026;-92
2023/06/07 00:23:05;;;;;;;2.97;2.17;;;15.80;57.00;;;;;;4995906;28;20069;-90
2023/06/07 00:25:30;;;;;;;3.13;2.10;;;15.80;57.10;;;;;;5001345;28;20041;-89
2023/06/07 00:27:56;;;;;;;4.28;2.08;;;15.80;57.10;;;;;;4992025;28;20363;-89
2023/06/07 00:30:22;;;;;;;2.72;2.00;;;15.80;57.30;;;;;;4997601;28;20371;-91
2023/06/07 00:32:48;;;;;;;2.22;1.95;;;15.80;57.30;;;;;;4989500;28;20375;-89
2023/06/07 00:35:14;;;;;;;6.72;2.47;;;15.80;57.30;;;;;;5002361;28;20480;-89
2023/06/07 00:37:41;;;;;;;5.20;2.38;;;15.70;57.40;;;;;;4986526;28;20553;-89
2023/06/07 00:40:07;;;;;;;3.60;2.03;;;15.70;57.50;;;;;;4990547;28;20532;-88
2023/06/07 00:42:33;;;;;;;3.97;2.20;;;15.60;57.60;;;;;;4992415;28;20026;-88
2023/06/07 00:44:59;;;;;;;2.28;2.05;;;15.60;57.80;;;;;;4995375;28;20500;-90
2023/06/07 00:47:26;;;;;;;2.00;1.77;;;15.50;57.70;;;;;;4991486;28;20041;-91
2023/06/07 00:49:52;;;;;;;2.50;2.30;;;15.50;57.70;;;;;;4995283;28;20060;-90
2023/06/07 00:52:19;;;;;;;2.63;1.95;;;15.50;57.80;;;;;;4982066;28;20038;-90
2023/06/07 00:54:45;;;;;;;3.90;2.30;;;15.40;57.70;;;;;;5004100;28;20037;-91
2023/06/07 00:57:12;;;;;;;2.50;1.92;;;15.40;57.80;;;;;;4992569;28;20034;-90
2023/06/07 00:59:38;;;;;;;5.65;2.80;;;15.40;57.80;;;;;;5012584;28;20480;-90
2023/06/07 01:02:05;;;;;;;3.80;2.13;;;15.40;58.00;;;;;;4990060;28;20029;-90
2023/06/07 01:04:31;;;;;;;2.42;2.22;;;15.30;57.90;;;;;;4993177;28;20033;-89
2023/06/07 01:06:57;;;;;;;9.20;2.00;;;15.30;58.10;;;;;;5003627;28;20087;-89
2023/06/07 01:09:24;;;;;;;2.30;2.10;;;15.30;58.20;;;;;;4999698;28;20037;-90
2023/06/07 01:11:53;;;;;;;3.75;2.20;;;15.20;58.30;;;;;;5010791;28;20461;-90
2023/06/07 01:14:20;;;;;;;2.20;2.00;;;15.20;58.40;;;;;;4985541;28;20385;-90
2023/06/07 01:16:50;;;;;;;2.58;1.90;;;15.20;58.40;;;;;;4989588;28;20082;-90
2023/06/07 01:19:27;;;;;;;3.13;2.25;;;15.20;58.40;;;;;;5009881;28;20053;-89
2023/06/07 01:22:13;;;;;;;2.95;1.80;;;15.20;58.90;;;;;;4997936;28;20121;-88
2023/06/07 01:24:42;;;;;;;6.13;2.35;;;15.10;59.30;;;;;;4997762;28;20034;-90
2023/06/07 01:27:10;;;;;;;4.20;2.50;;;15.10;58.30;;;;;;4994203;28;20046;-89
2023/06/07 01:29:36;;;;;;;3.25;2.22;;;15.10;58.40;;;;;;5025844;28;20010;-89
2023/06/07 01:32:04;;;;;;;2.70;1.77;;;15.10;58.40;;;;;;5006550;28;20033;-92
2023/06/07 01:34:32;;;;;;;3.92;2.00;;;15.10;58.70;;;;;;5012297;28;20057;-91
2023/06/07 01:37:00;;;;;;;3.33;2.20;;;15.00;58.70;;;;;;4999748;28;20138;-88
2023/06/07 01:39:27;;;;;;;2.97;2.00;;;15.00;58.80;;;;;;4985787;28;20026;-89
2023/06/07 01:41:53;;;;;;;3.42;2.10;;;15.00;59.00;;;;;;4986687;28;20048;-90
2023/06/07 01:44:19;;;;;;;2.33;2.13;;;15.00;58.90;;;;;;5000443;28;20034;-90
2023/06/07 01:46:46;;;;;;;3.47;2.30;;;14.90;58.90;;;;;;4990781;28;20057;-89
2023/06/07 01:49:13;;;;;;;2.85;2.38;;;14.90;59.00;;;;;;4992945;28;20114;-90
2023/06/07 01:51:38;;;;;;;2.78;1.92;;;14.90;59.00;;;;;;4988071;28;20030;-90
2023/06/07 01:54:05;;;;;;;2.58;2.08;;;14.80;59.00;;;;;;4996161;28;20072;-90
2023/06/07 01:56:39;;;;;;;3.58;1.90;;;14.80;59.30;;;;;;4993730;28;20528;-89
2023/06/07 01:59:11;;;;;;;5.65;2.28;;;14.80;59.60;;;;;;4986261;28;20054;-90
2023/06/07 02:01:43;;;;;;;2.67;1.90;;;14.80;59.50;;;;;;4993870;28;20390;-90
2023/06/07 02:04:13;;;;;;;2.50;2.15;;;14.80;59.40;;;;;;4990146;28;20028;-89
2023/06/07 02:06:44;;;;;;;3.13;2.05;;;14.70;59.60;;;;;;4984376;28;20108;-89
2023/06/07 02:09:12;;;;;;;5.15;2.22;;;14.70;60.00;;;;;;4993661;28;20561;-89
2023/06/07 02:11:39;;;;;;;2.80;2.17;;;14.60;59.50;;;;;;4995957;28;20025;-89
2023/06/07 02:14:09;;;;;;;5.15;2.03;;;14.60;59.60;;;;;;4988171;28;20026;-89
2023/06/07 02:16:36;;;;;;;5.80;2.20;;;14.60;60.00;;;;;;4998371;28;20065;-89
2023/06/07 02:19:09;;;;;;;2.42;2.22;;;14.50;59.60;;;;;;4995896;28;20026;-89
2023/06/07 02:21:38;;;;;;;4.25;2.20;;;14.50;60.20;;;;;;4989570;28;20030;-90
2023/06/07 02:24:07;;;;;;;2.88;2.17;;;14.50;59.90;;;;;;4989935;28;20034;-89
2023/06/07 02:26:33;;;;;;;2.78;2.00;;;14.50;60.20;;;;;;4987828;28;20058;-90
2023/06/07 02:28:59;;;;;;;3.40;2.05;;;14.50;59.90;;;;;;4997307;28;20022;-89
2023/06/07 02:31:25;;;;;;;1.98;1.77;;;14.40;59.90;;;;;;4984907;28;20034;-89
2023/06/07 02:33:51;;;;;;;4.28;2.17;;;14.40;60.10;;;;;;5004522;28;20053;-89
2023/06/07 02:36:21;;;;;;;3.00;2.20;;;14.40;60.10;;;;;;5006341;28;20061;-92
2023/06/07 02:38:48;;;;;;;4.80;2.30;;;14.30;60.50;;;;;;4983700;28;20026;-89
2023/06/07 02:41:15;;;;;;;4.05;2.05;;;14.30;60.20;;;;;;4983278;28;20134;-88
2023/06/07 02:43:41;;;;;;;3.00;2.10;;;14.30;60.20;;;;;;4999848;28;20041;-88
2023/06/07 02:46:07;;;;;;;4.00;2.30;;;14.30;60.30;;;;;;4991594;28;20026;-90
2023/06/07 02:48:33;;;;;;;4.00;2.25;;;14.20;60.30;;;;;;5002385;28;20548;-90
2023/06/07 02:50:59;;;;;;;2.95;2.17;;;14.20;60.50;;;;;;4982101;28;20034;-90
2023/06/07 02:53:26;;;;;;;4.72;2.42;;;14.20;60.50;;;;;;4985287;28;20371;-89
2023/06/07 02:55:51;;;;;;;3.33;2.35;;;14.10;60.70;;;;;;4982472;28;20030;-89
2023/06/07 02:58:17;;;;;;;4.40;2.63;;;14.10;60.80;;;;;;4995073;28;20041;-89
2023/06/07 03:00:46;;;;;;;2.28;2.05;;;14.10;60.70;;;;;;4988192;28;20183;-89
2023/06/07 03:03:12;;;;;;;3.13;2.22;;;14.10;60.50;;;;;;4993730;28;20030;-89
2023/06/07 03:05:40;;;;;;;4.32;2.40;;;14.00;60.60;;;;;;4989788;28;20394;-88
2023/06/07 03:08:10;;;;;;;3.42;2.20;;;14.00;61.00;;;;;;4989637;28;20045;-89
2023/06/07 03:10:36;;;;;;;3.13;2.30;;;14.00;61.00;;;;;;4983888;28;20029;-89
2023/06/07 03:13:03;;;;;;;3.17;2.55;;;13.90;60.90;;;;;;4978261;28;20028;-88
2023/06/07 03:15:29;;;;;;;4.55;2.35;;;13.90;61.10;;;;;;4989706;28;20042;-89
2023/06/07 03:17:55;;;;;;;4.30;2.28;;;13.90;61.10;;;;;;4988735;28;20688;-89
2023/06/07 03:20:21;;;;;;;2.30;2.08;;;13.80;61.20;;;;;;4992147;28;20084;-91
2023/06/07 03:22:47;;;;;;;3.28;2.22;;;13.80;61.40;;;;;;4990880;28;20031;-89
2023/06/07 03:25:13;;;;;;;3.38;2.30;;;13.80;61.40;;;;;;4991944;28;20026;-89
2023/06/07 03:27:39;;;;;;;2.85;2.30;;;13.80;61.50;;;;;;4997499;28;20026;-89
2023/06/07 03:30:06;;;;;;;2.75;2.20;;;13.80;61.30;;;;;;4990285;28;20048;-90
2023/06/07 03:32:32;;;;;;;2.75;2.10;;;13.80;61.50;;;;;;4991858;28;20027;-89
2023/06/07 03:34:58;;;;;;;2.75;2.30;;;13.80;61.40;;;;;;5002430;28;20463;-89
2023/06/07 03:37:24;;;;;;;2.50;2.30;;;13.70;61.50;;;;;;4975670;28;20117;-89
2023/06/07 03:39:50;;;;;;;2.20;1.95;;;13.70;61.40;;;;;;4971222;28;20129;-90
2023/06/07 03:42:15;;;;;;;2.60;2.10;;;13.70;61.40;;;;;;4978225;28;20030;-88
2023/06/07 03:44:41;;;;;;;2.95;2.38;;;13.70;61.50;;;;;;4980137;28;20490;-89
2023/06/07 03:47:07;;;;;;;3.08;2.35;;;13.70;61.50;;;;;;4975013;28;20118;-89
2023/06/07 03:49:32;;;;;;;2.92;2.30;;;13.70;61.60;;;;;;4973749;28;20541;-88
2023/06/07 03:51:58;;;;;;;2.95;2.35;;;13.70;61.70;;;;;;4979029;28;20034;-89
2023/06/07 03:54:24;;;;;;;3.53;2.30;;;13.70;61.80;;;;;;4980419;28;20030;-88
2023/06/07 03:56:49;;;;;;;5.13;2.13;;;13.70;61.90;;;;;;4980517;28;20538;-90
2023/06/07 03:59:19;;;;;;;2.80;2.28;;;13.80;61.90;;;;;;4990375;28;20048;-89
2023/06/07 04:01:45;;;;;;;2.45;2.22;;;13.80;62.00;;;;;;4972417;28;20027;-90
2023/06/07 04:04:11;;;;;;;3.55;2.60;;;13.80;62.00;;;;;;4975443;28;20513;-88
2023/06/07 04:06:37;;;;;;;3.60;2.30;;;13.80;62.00;;;;;;4991132;28;20121;-89
2023/06/07 04:09:03;;;;;;;4.28;2.90;;;13.80;62.00;;;;;;4968276;28;20490;-89
2023/06/07 04:11:29;;;;;;;2.80;2.30;;;13.90;62.00;;;;;;4969978;28;20041;-88
2023/06/07 04:13:55;;;;;;;2.80;2.40;;;13.90;61.90;;;;;;4973771;28;20031;-90
2023/06/07 04:16:21;;;;;;;4.40;2.35;;;13.90;61.90;;;;;;4980642;28;20044;-89
2023/06/07 04:18:47;;;;;;;7.43;4.65;;;13.90;62.00;;;;;;4979053;28;20509;-89
2023/06/07 04:21:13;;;;;;;3.92;3.08;;;13.90;62.00;;;;;;4972563;28;20486;-89
2023/06/07 04:23:41;;;;;;;4.03;2.47;;;14.00;62.10;;;;;;4965036;28;20035;-88
2023/06/07 04:26:08;;;;;;;3.72;2.33;;;14.00;61.90;;;;;;4973222;28;20038;-89
2023/06/07 04:28:34;;;;;;;3.22;2.40;;;14.10;61.90;;;;;;4966259;28;20038;-88
2023/06/07 04:31:00;;;;;;;3.70;2.47;;;14.10;62.00;;;;;;4970896;28;20066;-89
2023/06/07 04:33:27;;;;;;;2.80;2.30;;;14.10;62.00;;;;;;4977941;28;20055;-88
2023/06/07 04:36:02;;;;;;;4.53;2.22;;;14.20;62.00;;;;;;4998510;28;20642;-88
2023/06/07 04:38:29;;;;;;;3.40;2.15;;;14.20;62.00;;;;;;4992728;28;20029;-89
2023/06/07 04:40:55;;;;;;;5.38;2.13;;;14.30;61.90;;;;;;5003588;28;20029;-89
2023/06/07 04:43:23;;;;;;;3.95;2.10;;;14.30;62.00;;;;;;4994072;28;20034;-89
2023/06/07 04:45:54;;;;;;;2.78;2.20;;;14.40;62.00;;;;;;4993936;28;20085;-89
2023/06/07 04:48:26;;;;;;;5.97;2.47;;;14.40;62.00;;;;;;4988066;28;20036;-89
2023/06/07 04:50:56;;;;;;;5.70;2.30;;;14.50;62.50;;;;;;5005440;28;20033;-90
2023/06/07 04:53:22;;;;;;;3.53;2.30;;;14.60;62.20;;;;;;4983710;28;20030;-90
2023/06/07 04:55:48;;;;;;;4.13;2.60;;;14.70;61.90;;;;;;4986390;28;20110;-89
2023/06/07 04:58:18;;;;;;;3.88;2.63;;;14.80;61.70;;;;;;4988593;28;20057;-90
2023/06/07 05:00:45;;;;;;;5.15;2.58;;;14.90;61.70;;;;;;4985813;28;20061;-89
2023/06/07 05:03:13;;;;;;;3.85;2.60;;;15.00;61.40;;;;;;4980755;28;20126;-90
2023/06/07 05:05:40;;;;;;;6.05;2.65;;;15.10;61.40;;;;;;4995305;28;20042;-87
2023/06/07 05:08:06;;;;;;;4.25;2.47;;;15.20;61.80;;;;;;4983853;28;20026;-92
2023/06/07 05:10:31;;;;;;;9.40;2.50;;;15.30;61.40;;;;;;5008175;28;20050;-89
2023/06/07 05:12:57;;;;;;;4.30;2.35;;;15.40;61.20;;;;;;4991329;28;20030;-90
2023/06/07 05:15:23;;;;;;;7.65;2.65;;;15.50;61.00;;;;;;5003498;28;20080;-89
2023/06/07 05:17:50;;;;;;;8.15;2.47;;;15.70;61.10;;;;;;4987764;28;20117;-90
2023/06/07 05:20:17;;;;;;;9.05;2.88;;;15.80;61.10;;;;;;4993841;28;20033;-89
2023/06/07 05:22:43;;;;;;;6.97;2.47;;;15.90;61.00;;;;;;5022564;28;20126;-91
2023/06/07 05:25:11;;;;;;;13.35;2.90;;;16.10;60.70;;;;;;5006763;28;20019;-95
2023/06/07 05:27:42;;;;;;;9.80;2.63;;;16.30;60.50;;;;;;5007411;28;20030;-92
2023/06/07 05:30:08;;;;;;;17.48;3.00;;;16.50;60.40;;;;;;5016354;28;20040;-91
2023/06/07 05:32:36;;;;;;;11.10;2.72;;;16.60;59.90;;;;;;4998194;28;20038;-88
2023/06/07 05:35:03;;;;;;;20.02;3.45;;;16.60;59.70;;;;;;4984340;28;20039;-90
2023/06/07 05:37:30;;;;;;;13.52;3.05;;;16.90;59.60;;;;;;4997802;28;20052;-87
2023/06/07 05:39:56;;;;;;;12.30;3.13;;;17.00;59.50;;;;;;4987328;28;20030;-89
2023/06/07 05:42:22;;;;;;;8.30;3.25;;;17.10;59.30;;;;;;4986045;28;20116;-89
2023/06/07 05:44:49;;;;;;;9.40;3.05;;;17.20;59.20;;;;;;4984278;28;20058;-89
2023/06/07 05:47:20;;;;;;;14.82;3.38;;;17.30;59.10;;;;;;4984829;28;20022;-88
2023/06/07 05:49:46;;;;;;;15.82;3.53;;;17.50;59.10;;;;;;4983733;28;20046;-88
2023/06/07 05:52:15;;;;;;;9.32;3.00;;;17.60;59.00;;;;;;4981171;28;20574;-89
2023/06/07 05:54:49;;;;;;;5.00;3.35;;;17.70;59.10;;;;;;4986940;28;20386;-88
2023/06/07 05:57:15;;;;;;;8.07;3.22;;;17.80;59.20;;;;;;4985408;28;20076;-88
2023/06/07 05:59:41;;;;;;;7.75;3.40;;;18.00;59.20;;;;;;4984833;28;20030;-89
2023/06/07 06:02:07;;;;;;;8.43;3.63;;;18.10;59.10;;;;;;4992009;28;20037;-88
2023/06/07 06:04:33;;;;;;;7.00;3.20;;;18.30;59.30;;;;;;4996366;28;20031;-90
2023/06/07 06:07:00;;;;;;;9.90;3.38;;;18.40;59.30;;;;;;4982477;28;20058;-90
2023/06/07 06:09:26;;;;;;;6.50;3.30;;;18.60;59.30;;;;;;4995459;28;20045;-90
2023/06/07 06:11:52;;;;;;;10.95;3.63;;;18.70;59.30;;;;;;4983228;28;20478;-89
2023/06/07 06:14:20;;;;;;;10.93;3.05;;;18.90;59.20;;;;;;4982231;28;20026;-90
2023/06/07 06:16:46;;;;;;;9.32;3.20;;;19.10;59.10;;;;;;4996381;28;20038;-93
2023/06/07 06:19:12;;;;;;;12.02;2.90;;;19.20;58.70;;;;;;4996396;28;20034;-90
2023/06/07 06:21:38;;;;;;;7.65;3.22;;;19.30;58.40;;;;;;4985121;28;20037;-89
2023/06/07 06:24:04;;;;;;;6.30;2.70;;;19.40;58.00;;;;;;4998865;28;20500;-90
2023/06/07 06:26:30;;;;;;;5.43;3.13;;;19.60;57.90;;;;;;4993232;28;20477;-91
2023/06/07 06:28:58;;;;;;;11.05;3.17;;;19.70;57.70;;;;;;4991289;28;20026;-90
2023/06/07 06:31:24;;;;;;;5.38;3.45;;;19.80;57.60;;;;;;4987975;28;20143;-89
2023/06/07 06:33:50;;;;;;;8.10;3.70;;;19.90;57.50;;;;;;4998713;28;20037;-89
2023/06/07 06:36:17;;;;;;;6.15;3.60;;;20.00;57.70;;;;;;4980343;28;20086;-89
2023/06/07 06:38:42;;;;;;;7.15;3.50;;;20.10;57.60;;;;;;4982885;28;20125;-89
2023/06/07 06:41:09;;;;;;;8.75;3.10;;;20.20;57.60;;;;;;4987126;28;20062;-90
2023/06/07 06:43:35;;;;;;;8.32;3.78;;;20.30;57.40;;;;;;5001185;28;20030;-89
2023/06/07 06:46:01;;;;;;;7.63;3.38;;;20.50;57.20;;;;;;4983972;28;20028;-90
2023/06/07 06:48:27;;;;;;;3.17;2.88;;;20.60;57.30;;;;;;4995527;28;20469;-90
2023/06/07 06:50:52;;;;;;;4.45;3.17;;;20.70;57.10;;;;;;4996465;28;20117;-92
2023/06/07 06:53:18;;;;;;;10.02;3.22;;;20.80;56.80;;;;;;5006664;28;20113;-89
2023/06/07 06:55:44;;;;;;;4.97;3.42;;;20.90;56.80;;;;;;4997768;28;20080;-89
2023/06/07 06:58:09;;;;;;;5.97;3.00;;;21.00;56.40;;;;;;4992227;28;20038;-90
2023/06/07 07:00:38;;;;;;;8.57;3.75;;;21.10;56.00;;;;;;4989564;28;20061;-89
2023/06/07 07:03:04;;;;;;;3.78;2.88;;;21.20;56.90;;;;;;4994065;28;20041;-90
2023/06/07 07:05:29;;;;;;;5.63;3.40;;;21.30;56.40;;;;;;4977620;28;20030;-91
2023/06/07 07:07:56;;;;;;;5.53;3.35;;;21.40;56.40;;;;;;4988092;28;20026;-92
2023/06/07 07:10:22;;;;;;;6.53;3.47;;;21.50;56.20;;;;;;4988889;28;20026;-90
2023/06/07 07:12:47;;;;;;;4.35;3.00;;;21.60;56.00;;;;;;4993392;28;20058;-89
2023/06/07 07:15:13;;;;;;;7.20;3.10;;;21.70;55.50;;;;;;5007709;28;20079;-90
2023/06/07 07:17:48;;;;;;;8.05;2.53;;;21.80;55.30;;;;;;4981522;28;20040;-89
2023/06/07 07:20:16;;;;;;;2.53;2.30;;;21.90;55.20;;;;;;4986239;28;20462;-89
2023/06/07 07:22:43;;;;;;;5.03;2.45;;;22.00;55.30;;;;;;4993604;28;20075;-89
2023/06/07 07:25:10;;;;;;;4.28;2.38;;;22.00;55.00;;;;;;4986685;28;20573;-90
2023/06/07 07:27:36;;;;;;;3.67;2.13;;;22.10;54.50;;;;;;5000928;28;20033;-88
2023/06/07 07:30:02;;;;;;;5.03;2.25;;;22.20;54.40;;;;;;4991615;28;20039;-89
2023/06/07 07:32:28;;;;;;;3.03;2.58;;;22.20;54.30;;;;;;4999168;28;20130;-90
2023/06/07 07:34:54;;;;;;;5.22;2.80;;;22.30;54.30;;;;;;4996122;28;20058;-90
2023/06/07 07:37:19;;;;;;;3.15;2.42;;;22.40;54.00;;;;;;4984095;28;20112;-90
2023/06/07 07:39:45;;;;;;;3.90;2.20;;;22.50;53.70;;;;;;4983587;28;20042;-91
2023/06/07 07:42:11;;;;;;;3.85;1.77;;;22.50;54.10;;;;;;4999687;28;20023;-90
2023/06/07 07:44:37;;;;;;;3.30;2.17;;;22.60;53.90;;;;;;4989184;28;20458;-92
2023/06/07 07:47:05;;;;;;;2.45;1.95;;;22.60;53.50;;;;;;4993872;28;20072;-90
2023/06/07 07:49:30;;;;;;;2.70;1.85;;;22.70;53.40;;;;;;4991106;28;20113;-90
2023/06/07 07:51:56;;;;;;;2.53;1.73;;;22.70;53.20;;;;;;4981973;28;20050;-90
2023/06/07 07:54:22;;;;;;;4.07;2.20;;;22.80;53.20;;;;;;4984833;28;20088;-90
2023/06/07 07:56:47;;;;;;;1.95;1.75;;;22.90;52.70;;;;;;5006161;28;20397;-90
2023/06/07 07:59:13;;;;;;;1.77;1.65;;;23.00;52.80;;;;;;4992572;28;20103;-90
2023/06/07 08:01:39;;;;;;;2.10;1.50;;;23.10;53.00;;;;;;4991487;28;20026;-93
2023/06/07 08:04:05;;;;;;;2.08;1.67;;;23.30;52.80;;;;;;4991952;28;20037;-90
2023/06/07 08:06:30;;;;;;;2.05;1.55;;;23.40;52.40;;;;;;5006589;28;20030;-91
2023/06/07 08:08:56;;;;;;;2.85;1.88;;;23.60;52.30;;;;;;4998794;28;20026;-91
2023/06/07 08:11:23;;;;;;;1.80;1.42;;;23.70;51.40;;;;;;4995736;28;20037;-90
2023/06/07 08:13:49;;;;;;;4.25;1.50;;;23.80;51.00;;;;;;4990334;28;20038;-91
2023/06/07 08:16:16;;;;;;;3.55;1.98;;;24.00;51.10;;;;;;4984042;28;20040;-90
2023/06/07 08:18:44;;;;;;;3.45;1.90;;;24.00;51.20;;;;;;4994137;28;20026;-93
2023/06/07 08:21:11;;;;;;;5.20;2.00;;;24.10;50.80;;;;;;4992876;28;20037;-90
2023/06/07 08:23:37;;;;;;;2.55;1.70;;;24.20;50.20;;;;;;4986933;28;20031;-89
2023/06/07 08:26:03;;;;;;;5.05;1.67;;;24.40;50.40;;;;;;4983034;28;20108;-90
2023/06/07 08:28:29;;;;;;;6.60;2.15;;;24.50;50.10;;;;;;4997546;28;20029;-90
2023/06/07 08:30:55;;;;;;;3.08;1.80;;;24.50;49.80;;;;;;4986493;28;20034;-90
2023/06/07 08:33:21;;;;;;;2.30;1.55;;;24.70;49.20;;;;;;4994404;28;20034;-90
2023/06/07 08:35:46;;;;;;;1.95;1.67;;;24.80;48.60;;;;;;4994183;28;20116;-90
2023/06/07 08:38:12;;;;;;;1.42;1.23;;;24.80;48.40;;;;;;4997768;28;20429;-91
2023/06/07 08:40:38;;;;;;;2.70;1.58;;;24.90;48.90;;;;;;4986192;28;20041;-90
2023/06/07 08:43:04;;;;;;;3.47;1.52;;;24.90;49.20;;;;;;4984237;28;20038;-90
2023/06/07 08:45:30;;;;;;;1.83;1.10;;;25.00;49.00;;;;;;4994983;28;20026;-90
2023/06/07 08:48:06;;;;;;;1.42;1.33;;;25.00;48.50;;;;;;4994645;28;20026;-90
2023/06/07 08:50:34;;;;;;;1.70;1.38;;;25.10;47.40;;;;;;4983489;28;20026;-90
2023/06/07 08:53:07;;;;;;;1.55;1.35;;;25.10;47.40;;;;;;4986258;28;20052;-89
2023/06/07 08:55:34;;;;;;;2.08;1.50;;;25.00;47.50;;;;;;4984598;28;20034;-91
2023/06/07 08:58:00;;;;;;;2.22;1.48;;;25.00;48.10;;;;;;4989425;28;20056;-90
2023/06/07 09:00:26;;;;;;;2.35;1.42;;;25.00;47.70;;;;;;4997190;28;20041;-89
2023/06/07 09:02:52;;;;;;;1.40;1.30;;;25.10;48.00;;;;;;5016963;28;20475;-90
2023/06/07 09:05:22;;;;;;;1.40;1.30;;;25.10;48.20;;;;;;4996173;28;20033;-90
2023/06/07 09:07:49;;;;;;;1.60;1.33;;;25.30;47.60;;;;;;4999852;28;20529;-91
2023/06/07 09:10:17;;;;;;;2.13;1.48;;;25.40;47.50;;;;;;4994297;28;20086;-89
2023/06/07 09:12:47;;;;;;;3.00;1.55;;;25.50;47.00;;;;;;4983624;28;20030;-89
2023/06/07 09:15:21;;;;;;;2.97;1.50;;;25.80;45.70;;;;;;5013077;28;20037;-90
2023/06/07 09:17:59;;;;;;;2.53;1.40;;;25.90;46.20;;;;;;5009865;28;20030;-90
2023/06/07 09:20:27;;;;;;;2.85;1.67;;;26.10;45.90;;;;;;5008978;28;20026;-93
2023/06/07 09:23:09;;;;;;;2.10;1.58;;;26.20;45.40;;;;;;5000809;28;20086;-91
2023/06/07 09:25:37;;;;;;;3.75;1.60;;;26.30;45.30;;;;;;4990322;28;20037;-90
2023/06/07 09:28:08;;;;;;;2.38;1.55;;;26.40;45.20;;;;;;4981214;28;20034;-89
2023/06/07 09:30:34;;;;;;;2.08;1.65;;;26.50;45.00;;;;;;4986467;28;20065;-89
2023/06/07 09:33:00;;;;;;;2.95;1.70;;;26.60;45.20;;;;;;4993497;28;20026;-90
2023/06/07 09:35:26;;;;;;;3.40;1.80;;;26.70;44.90;;;;;;4993263;28;20045;-89
2023/06/07 09:37:54;;;;;;;2.45;1.75;;;26.80;44.70;;;;;;4986628;28;20026;-90
2023/06/07 09:40:21;;;;;;;2.10;1.50;;;26.90;44.10;;;;;;4990794;28;20038;-90
2023/06/07 09:42:59;;;;;;;2.40;1.52;;;26.90;44.10;;;;;;5005426;28;20061;-89
2023/06/07 09:45:26;;;;;;;3.63;1.75;;;27.00;44.00;;;;;;4988537;28;20130;-90
2023/06/07 09:48:09;;;;;;;1.85;1.58;;;27.00;43.80;;;;;;4985196;28;20683;-90
2023/06/07 09:50:35;;;;;;;1.98;1.48;;;27.10;43.00;;;;;;4982875;28;20034;-90
2023/06/07 09:53:01;;;;;;;2.13;1.70;;;27.20;43.90;;;;;;4989983;28;20030;-89
2023/06/07 09:55:28;;;;;;;1.58;1.40;;;27.20;43.20;;;;;;4991329;28;20061;-88
2023/06/07 09:57:55;;;;;;;2.10;1.40;;;27.30;42.80;;;;;;5011673;28;20092;-88
2023/06/07 10:00:21;;;;;;;2.75;1.40;;;27.40;42.50;;;;;;5001255;28;20053;-90
2023/06/07 10:02:49;;;;;;;4.10;1.80;;;27.50;42.00;;;;;;4988918;28;20120;-89
2023/06/07 10:05:16;;;;;;;2.78;1.80;;;27.60;42.30;;;;;;4983223;28;20046;-89
2023/06/07 10:07:47;;;;;;;1.88;1.50;;;27.60;41.70;;;;;;4984195;28;20038;-89
2023/06/07 10:10:15;;;;;;;2.20;1.45;;;27.60;41.60;;;;;;4988394;28;20416;-89
2023/06/07 10:12:43;;;;;;;1.83;1.52;;;27.60;42.50;;;;;;4989384;28;20057;-88
2023/06/07 10:15:11;;;;;;;4.95;1.35;;;27.70;42.00;;;;;;4996547;28;20101;-89
2023/06/07 10:17:59;;;;;;;2.00;1.63;;;27.80;41.60;;;;;;4984341;28;20034;-89
2023/06/07 10:20:30;;;;;;;4.75;1.80;;;28.00;40.10;;;;;;4992389;28;20026;-90
2023/06/07 10:23:02;;;;;;;2.25;1.80;;;28.10;39.80;;;;;;4995080;28;20034;-90
2023/06/07 10:25:31;;;;;;;16.45;1.75;;;28.10;38.90;;;;;;4985118;28;20034;-90
2023/06/07 10:28:08;;;;;;;2.00;1.80;;;28.10;39.60;;;;;;4989620;28;20026;-90
2023/06/07 10:30:38;;;;;;;2.22;1.73;;;28.10;39.20;;;;;;4989831;28;20034;-90
2023/06/07 10:33:04;;;;;;;5.25;1.95;;;28.00;38.30;;;;;;4984080;28;20045;-89
2023/06/07 10:35:31;;;;;;;4.63;1.58;;;28.00;38.20;;;;;;4974727;28;20052;-90
2023/06/07 10:37:57;;;;;;;2.35;1.48;;;27.90;39.50;;;;;;4995173;28;20030;-90
2023/06/07 10:40:25;;;;;;;3.10;1.70;;;27.90;40.00;;;;;;4988583;28;20230;-90
2023/06/07 10:42:52;;;;;;;4.53;1.67;;;27.90;39.80;;;;;;5018884;28;20030;-91
2023/06/07 10:45:19;;;;;;;2.50;1.98;;;28.00;39.80;;;;;;4990176;28;20477;-90
2023/06/07 10:47:48;;;;;;;4.93;1.70;;;28.10;39.00;;;;;;4989052;28;20212;-90
2023/06/07 10:50:26;;;;;;;1.65;1.55;;;28.20;38.60;;;;;;5009269;28;20142;-89
2023/06/07 10:53:00;;;;;;;2.22;1.63;;;28.30;37.50;;;;;;5003640;28;20030;-90
2023/06/07 10:55:27;;;;;;;5.38;1.75;;;28.40;37.20;;;;;;4985796;28;20386;-90
2023/06/07 10:57:54;;;;;;;1.77;1.40;;;28.50;37.60;;;;;;4984484;28;20237;-89
2023/06/07 11:00:40;;;;;;;1.70;1.38;;;28.50;38.40;;;;;;4987049;28;20034;-90
2023/06/07 11:03:10;;;;;;;2.85;1.70;;;28.60;37.80;;;;;;5000407;28;20400;-89
2023/06/07 11:06:01;;;;;;;7.15;1.30;;;28.70;38.20;;;;;;4982193;28;20177;-90
2023/06/07 11:08:31;;;;;;;2.47;1.58;;;29.00;38.20;;;;;;4979945;28;20030;-90
2023/06/07 11:11:00;;;;;;;2.22;1.40;;;28.90;38.30;;;;;;4987701;28;20543;-89
2023/06/07 11:13:44;;;;;;;2.17;1.50;;;28.80;37.80;;;;;;4981922;28;20030;-90
2023/06/07 11:16:22;;;;;;;2.33;1.60;;;28.70;37.50;;;;;;4982573;28;20042;-89
2023/06/07 11:19:07;;;;;;;1.63;1.50;;;28.50;37.40;;;;;;4992762;28;20072;-90
2023/06/07 11:21:55;;;;;;;7.43;1.63;;;28.40;37.30;;;;;;4983033;28;20037;-90
2023/06/07 11:24:22;;;;;;;1.38;1.27;;;28.10;37.10;;;;;;4989032;28;20034;-90
2023/06/07 11:26:50;;;;;;;3.20;1.73;;;28.00;38.30;;;;;;4998473;28;20033;-89
2023/06/07 11:29:19;;;;;;;3.17;1.52;;;27.90;38.30;;;;;;4985934;28;20066;-89
2023/06/07 11:31:56;;;;;;;3.25;2.30;;;27.90;38.00;;;;;;4993386;28;20489;-91
2023/06/07 11:34:22;;;;;;;3.85;1.80;;;27.90;37.80;;;;;;4988712;28;20034;-90
2023/06/07 11:36:48;;;;;;;2.15;1.60;;;27.80;37.80;;;;;;4992258;28;20132;-89
2023/06/07 11:39:17;;;;;;;3.25;1.70;;;27.70;37.60;;;;;;4990493;28;20061;-89
2023/06/07 11:41:43;;;;;;;1.98;1.77;;;27.60;36.90;;;;;;4993956;28;20030;-90
2023/06/07 11:44:10;;;;;;;4.65;1.50;;;27.50;37.20;;;;;;4993911;28;20527;-90
2023/06/07 11:46:36;;;;;;;1.80;1.50;;;27.40;36.90;;;;;;4985670;28;20042;-89
2023/06/07 11:49:07;;;;;;;1.85;1.33;;;27.30;36.80;;;;;;5006125;28;20203;-89
2023/06/07 11:51:33;;;;;;;3.05;1.92;;;27.30;36.70;;;;;;4988485;28;20040;-89
2023/06/07 11:53:59;;;;;;;15.55;2.25;;;27.20;36.80;;;;;;5010562;28;20060;-89
2023/06/07 11:56:27;;;;;;;3.08;1.73;;;27.20;36.80;;;;;;4988204;28;20198;-90
2023/06/07 11:58:56;;;;;;;3.47;1.65;;;27.10;37.20;;;;;;4999171;28;20678;-89
2023/06/07 12:01:22;;;;;;;3.72;1.77;;;27.20;39.00;;;;;;4993278;28;20038;-90
2023/06/07 12:03:49;;;;;;;3.20;1.80;;;27.40;38.50;;;;;;5013004;28;20090;-89
2023/06/07 12:06:15;;;;;;;1.90;1.45;;;27.60;37.70;;;;;;4990637;28;20541;-89
2023/06/07 12:08:41;;;;;;;2.47;1.60;;;27.70;37.90;;;;;;4994484;28;20066;-89
2023/06/07 12:11:06;;;;;;;2.75;1.50;;;27.80;37.20;;;;;;4989800;28;20056;-89
2023/06/07 12:13:37;;;;;;;6.18;1.73;;;27.90;36.90;;;;;;4995297;28;20084;-91
2023/06/07 12:16:05;;;;;;;2.53;2.00;;;28.10;36.30;;;;;;4998987;28;20042;-89
2023/06/07 12:18:35;;;;;;;3.30;1.75;;;28.30;35.30;;;;;;4991847;28;20030;-91
2023/06/07 12:21:11;;;;;;;4.40;1.85;;;28.40;35.20;;;;;;4983777;28;20026;-89
2023/06/07 12:24:00;;;;;;;5.25;1.92;;;28.50;35.10;;;;;;4981646;28;20466;-90
2023/06/07 12:26:26;;;;;;;1.52;1.42;;;28.70;34.80;;;;;;4980210;28;20065;-90
2023/06/07 12:28:53;;;;;;;2.72;1.75;;;28.90;35.80;;;;;;4997925;28;20037;-89
2023/06/07 12:31:27;;;;;;;1.70;1.45;;;29.00;34.10;;;;;;4992916;28;20337;-89
2023/06/07 12:33:57;;;;;;;2.00;1.77;;;29.20;32.90;;;;;;4998224;28;20030;-91
2023/06/07 12:36:26;;;;;;;1.65;1.55;;;29.30;33.20;;;;;;5011346;28;20050;-90
2023/06/07 12:38:52;;;;;;;3.20;1.75;;;29.40;32.10;;;;;;4990942;28;20063;-91
2023/06/07 12:41:18;;;;;;;1.58;1.35;;;29.40;31.70;;;;;;4992730;28;20156;-90
2023/06/07 12:43:47;;;;;;;3.35;1.83;;;29.20;31.60;;;;;;4987185;28;20030;-90
2023/06/07 12:46:13;;;;;;;3.63;1.65;;;29.10;30.90;;;;;;4993469;28;20482;-91
2023/06/07 12:48:40;;;;;;;2.13;1.40;;;28.90;31.80;;;;;;4987918;28;20030;-90